createdAt,value
2024-01-20T00:00:26.948Z,6.05
2024-01-20T00:02:53.855Z,6.10
2024-01-20T00:05:21.394Z,6.45
2024-01-20T00:07:48.549Z,7.10
2024-01-20T00:10:17.929Z,6.88
2024-01-20T00:12:45.241Z,6.93
2024-01-20T00:15:13.324Z,6.55
2024-01-20T00:17:42.391Z,6.35
2024-01-20T00:20:11.009Z,6.85
2024-01-20T00:22:39.101Z,6.72
2024-01-20T00:25:07.028Z,6.38
2024-01-20T00:27:34.736Z,7.00
2024-01-20T00:30:02.294Z,6.93
2024-01-20T00:32:29.995Z,7.28
2024-01-20T00:35:06.073Z,7.40
2024-01-20T00:37:40.095Z,7.28
2024-01-20T00:40:08.422Z,7.00
2024-01-20T00:42:36.017Z,7.22
2024-01-20T00:45:04.683Z,6.50
2024-01-20T00:47:32.067Z,6.93
2024-01-20T00:49:59.292Z,7.47
2024-01-20T00:52:26.652Z,7.47
2024-01-20T00:54:53.634Z,7.53
2024-01-20T00:57:20.599Z,7.50
2024-01-20T00:59:48.181Z,7.22
2024-01-20T01:02:18.118Z,8.05
2024-01-20T01:04:46.000Z,6.63
2024-01-20T01:07:13.327Z,7.68
2024-01-20T01:09:40.230Z,8.35
2024-01-20T01:12:07.516Z,8.50
2024-01-20T01:14:34.604Z,7.70
2024-01-20T01:17:01.687Z,8.00
2024-01-20T01:19:28.732Z,8.35
2024-01-20T01:21:55.644Z,7.85
2024-01-20T01:24:22.603Z,7.40
2024-01-20T01:26:49.727Z,7.45
2024-01-20T01:29:16.942Z,7.72
2024-01-20T01:31:45.687Z,7.47
2024-01-20T01:34:13.248Z,7.78
2024-01-20T01:36:40.309Z,7.85
2024-01-20T01:39:07.230Z,7.57
2024-01-20T01:41:34.643Z,7.43
2024-01-20T01:44:02.589Z,6.93
2024-01-20T01:46:31.376Z,7.63
2024-01-20T01:48:58.841Z,7.35
2024-01-20T01:51:25.848Z,7.68
2024-01-20T01:53:53.602Z,7.75
2024-01-20T01:56:21.693Z,6.80
2024-01-20T01:58:48.928Z,7.07
2024-01-20T02:01:15.963Z,6.55
2024-01-20T02:03:43.343Z,6.75
2024-01-20T02:06:11.080Z,6.75
2024-01-20T02:08:41.273Z,6.88
2024-01-20T02:11:09.091Z,6.85
2024-01-20T02:13:37.057Z,6.55
2024-01-20T02:16:05.125Z,7.30
2024-01-20T02:18:32.498Z,7.10
2024-01-20T02:20:59.855Z,7.05
2024-01-20T02:23:26.992Z,6.70
2024-01-20T02:25:54.754Z,7.30
2024-01-20T02:28:21.870Z,7.47
2024-01-20T02:30:48.925Z,7.25
2024-01-20T02:33:16.116Z,7.80
2024-01-20T02:35:43.176Z,7.15
2024-01-20T02:38:10.625Z,8.30
2024-01-20T02:40:37.634Z,7.47
2024-01-20T02:43:04.756Z,8.05
2024-01-20T02:45:31.858Z,7.93
2024-01-20T02:47:59.818Z,7.60
2024-01-20T02:50:27.177Z,7.40
2024-01-20T02:52:54.260Z,7.75
2024-01-20T02:55:21.287Z,8.05
2024-01-20T02:57:48.276Z,7.88
2024-01-20T03:00:15.673Z,8.52
2024-01-20T03:02:42.756Z,8.23
2024-01-20T03:05:10.125Z,8.55
2024-01-20T03:07:37.145Z,8.10
2024-01-20T03:10:04.554Z,8.82
2024-01-20T03:12:31.720Z,8.75
2024-01-20T03:14:58.858Z,8.95
2024-01-20T03:17:25.914Z,7.80
2024-01-20T03:19:53.012Z,8.10
2024-01-20T03:22:20.216Z,7.85
2024-01-20T03:24:48.708Z,8.20
2024-01-20T03:27:18.657Z,8.40
2024-01-20T03:29:45.876Z,8.25
2024-01-20T03:32:13.782Z,8.52
2024-01-20T03:34:40.833Z,9.00
2024-01-20T03:37:08.400Z,8.77
2024-01-20T03:39:35.466Z,9.13
2024-01-20T03:42:02.612Z,9.23
2024-01-20T03:44:29.777Z,10.55
2024-01-20T03:46:56.780Z,9.77
2024-01-20T03:49:24.012Z,10.30
2024-01-20T03:51:51.125Z,11.35
2024-01-20T03:54:18.168Z,11.20
2024-01-20T03:56:45.607Z,12.10
2024-01-20T03:59:12.685Z,11.20
2024-01-20T04:01:40.685Z,10.10
2024-01-20T04:04:09.063Z,12.35
2024-01-20T04:06:36.432Z,11.35
2024-01-20T04:09:05.222Z,11.60
2024-01-20T04:11:32.397Z,11.50
2024-01-20T04:13:59.405Z,11.70
2024-01-20T04:16:26.599Z,12.30
2024-01-20T04:18:53.849Z,11.60
2024-01-20T04:21:21.099Z,11.73
2024-01-20T04:23:48.105Z,12.63
2024-01-20T04:26:15.141Z,11.07
2024-01-20T04:28:42.175Z,12.10
2024-01-20T04:31:09.945Z,11.82
2024-01-20T04:33:37.960Z,11.55
2024-01-20T04:36:05.909Z,11.98
2024-01-20T04:38:33.565Z,10.88
2024-01-20T04:41:00.777Z,11.85
2024-01-20T04:43:29.669Z,11.57
2024-01-20T04:45:56.694Z,10.85
2024-01-20T04:48:23.888Z,11.77
2024-01-20T04:50:50.938Z,10.70
2024-01-20T04:53:18.072Z,11.32
2024-01-20T04:55:45.083Z,10.73
2024-01-20T04:58:12.086Z,10.20
2024-01-20T05:00:39.213Z,10.75
2024-01-20T05:03:06.457Z,10.80
2024-01-20T05:05:34.112Z,10.13
2024-01-20T05:08:01.227Z,10.23
2024-01-20T05:10:28.215Z,10.45
2024-01-20T05:12:55.213Z,10.05
2024-01-20T05:15:22.283Z,10.27
2024-01-20T05:17:50.365Z,10.90
2024-01-20T05:20:17.553Z,10.93
2024-01-20T05:22:44.690Z,10.50
2024-01-20T05:25:11.656Z,10.35
2024-01-20T05:27:38.829Z,10.98
2024-01-20T05:30:07.075Z,11.10
2024-01-20T05:32:34.251Z,11.90
2024-01-20T05:35:01.491Z,10.50
2024-01-20T05:37:28.470Z,10.50
2024-01-20T05:39:55.476Z,10.93
2024-01-20T05:42:22.495Z,10.70
2024-01-20T05:44:49.850Z,10.30
2024-01-20T05:47:17.151Z,11.10
2024-01-20T05:49:44.224Z,12.00
2024-01-20T05:52:11.549Z,11.80
2024-01-20T05:54:38.584Z,11.15
2024-01-20T05:57:05.823Z,11.90
2024-01-20T05:59:32.817Z,11.07
2024-01-20T06:01:59.826Z,12.43
2024-01-20T06:04:26.928Z,11.82
2024-01-20T06:06:54.448Z,12.98
2024-01-20T06:09:21.458Z,11.48
2024-01-20T06:11:48.587Z,11.95
2024-01-20T06:14:15.933Z,11.93
2024-01-20T06:16:43.051Z,11.70
2024-01-20T06:19:10.639Z,12.27
2024-01-20T06:21:37.766Z,12.93
2024-01-20T06:24:05.420Z,11.75
2024-01-20T06:26:32.515Z,12.90
2024-01-20T06:28:59.676Z,12.65
2024-01-20T06:31:28.798Z,13.30
2024-01-20T06:33:56.535Z,13.07
2024-01-20T06:36:26.579Z,12.50
2024-01-20T06:38:54.458Z,13.90
2024-01-20T06:41:21.863Z,14.15
2024-01-20T06:43:48.919Z,13.80
2024-01-20T06:46:15.991Z,13.13
2024-01-20T06:48:43.202Z,14.10
2024-01-20T06:51:16.148Z,13.55
2024-01-20T06:53:44.545Z,14.75
2024-01-20T06:56:11.667Z,13.52
2024-01-20T06:58:38.595Z,14.75
2024-01-20T07:01:05.863Z,13.95
2024-01-20T07:03:33.043Z,14.52
2024-01-20T07:06:01.186Z,14.63
2024-01-20T07:08:28.160Z,14.70
2024-01-20T07:10:55.158Z,15.30
2024-01-20T07:13:22.110Z,15.02
2024-01-20T07:15:48.988Z,14.00
2024-01-20T07:18:16.053Z,15.55
2024-01-20T07:20:43.109Z,13.93
2024-01-20T07:23:10.030Z,12.77
2024-01-20T07:25:37.949Z,12.73
2024-01-20T07:28:07.787Z,13.80
2024-01-20T07:30:34.947Z,13.50
2024-01-20T07:33:01.976Z,11.70
2024-01-20T07:35:28.901Z,12.63
2024-01-20T07:37:55.840Z,11.77
2024-01-20T07:40:22.840Z,11.52
2024-01-20T07:42:49.772Z,10.98
2024-01-20T07:45:16.737Z,11.40
2024-01-20T07:47:43.811Z,10.48
2024-01-20T07:50:10.884Z,10.60
2024-01-20T07:52:40.849Z,9.88
2024-01-20T07:55:08.532Z,10.80
2024-01-20T07:57:35.660Z,10.13
2024-01-20T08:00:03.447Z,11.00
2024-01-20T08:02:30.379Z,10.35
2024-01-20T08:04:57.296Z,9.82
2024-01-20T08:07:24.218Z,10.82
2024-01-20T08:09:51.136Z,9.57
2024-01-20T08:12:18.127Z,10.32
2024-01-20T08:14:45.135Z,10.60
2024-01-20T08:17:12.081Z,10.05
2024-01-20T08:19:42.199Z,10.05
2024-01-20T08:22:09.603Z,9.60
2024-01-20T08:24:36.586Z,9.45
2024-01-20T08:27:04.215Z,10.07
2024-01-20T08:29:31.270Z,9.80
2024-01-20T08:31:58.316Z,9.82
2024-01-20T08:34:26.254Z,8.40
2024-01-20T08:36:53.175Z,10.10
2024-01-20T08:39:23.253Z,10.32
2024-01-20T08:41:50.184Z,9.52
2024-01-20T08:44:17.082Z,9.35
2024-01-20T08:46:44.079Z,9.32
2024-01-20T08:49:11.169Z,9.38
2024-01-20T08:51:38.301Z,10.18
2024-01-20T08:54:05.316Z,10.68
2024-01-20T08:56:32.647Z,10.40
2024-01-20T08:59:00.640Z,9.70
2024-01-20T09:01:27.588Z,10.88
2024-01-20T09:03:54.666Z,10.75
2024-01-20T09:06:21.791Z,10.20
2024-01-20T09:08:48.751Z,10.70
2024-01-20T09:11:15.684Z,11.73
2024-01-20T09:13:42.648Z,10.05
2024-01-20T09:16:10.655Z,12.02
2024-01-20T09:18:38.457Z,11.15
2024-01-20T09:21:11.625Z,11.02
2024-01-20T09:23:38.907Z,10.55
2024-01-20T09:26:05.947Z,11.55
2024-01-20T09:28:32.838Z,12.27
2024-01-20T09:30:59.812Z,10.60
2024-01-20T09:33:26.894Z,10.98
2024-01-20T09:35:53.913Z,12.15
2024-01-20T09:38:20.847Z,12.38
2024-01-20T09:40:48.025Z,11.23
2024-01-20T09:43:20.050Z,11.70
2024-01-20T09:45:47.250Z,11.17
2024-01-20T09:48:17.151Z,15.68
2024-01-20T09:50:44.227Z,13.38
2024-01-20T09:53:16.235Z,12.93
2024-01-20T09:55:45.878Z,10.25
2024-01-20T09:58:14.787Z,10.10
2024-01-20T10:00:43.235Z,11.15
2024-01-20T10:03:12.465Z,10.32
2024-01-20T10:05:39.978Z,10.27
2024-01-20T10:08:07.635Z,10.82
2024-01-20T10:10:35.798Z,14.40
2024-01-20T10:13:03.718Z,13.98
2024-01-20T10:15:34.328Z,11.05
2024-01-20T10:18:10.013Z,12.20
2024-01-20T10:20:38.075Z,10.07
2024-01-20T10:23:07.519Z,11.00
2024-01-20T10:25:35.137Z,10.70
2024-01-20T10:28:02.508Z,10.27
2024-01-20T10:30:31.238Z,9.50
2024-01-20T10:33:09.340Z,11.10
2024-01-20T10:35:39.210Z,10.98
2024-01-20T10:38:15.422Z,11.55
2024-01-20T10:40:44.506Z,11.15
2024-01-20T10:43:17.075Z,12.32
2024-01-20T10:46:03.638Z,12.10
2024-01-20T10:48:37.855Z,11.00
2024-01-20T10:51:12.208Z,11.77
2024-01-20T10:53:41.239Z,11.70
2024-01-20T10:56:09.698Z,12.80
2024-01-20T10:58:49.425Z,12.25
2024-01-20T11:01:17.620Z,12.38
2024-01-20T11:03:45.846Z,13.88
2024-01-20T11:06:23.594Z,11.52
2024-01-20T11:08:53.464Z,13.20
2024-01-20T11:11:26.706Z,12.63
2024-01-20T11:13:58.920Z,12.35
2024-01-20T11:16:30.867Z,12.13
2024-01-20T11:19:13.477Z,13.23
2024-01-20T11:21:40.966Z,11.30
2024-01-20T11:24:08.525Z,12.27
2024-01-20T11:26:38.134Z,11.65
2024-01-20T11:29:08.021Z,10.77
2024-01-20T11:31:35.859Z,11.05
2024-01-20T11:34:06.498Z,11.73
2024-01-20T11:36:35.893Z,12.43
2024-01-20T11:39:06.765Z,11.48
2024-01-20T11:41:34.475Z,9.80
2024-01-20T11:44:01.613Z,10.23
2024-01-20T11:46:29.022Z,10.15
2024-01-20T11:48:56.391Z,11.85
2024-01-20T11:51:24.021Z,10.60
2024-01-20T11:53:51.446Z,9.80
2024-01-20T11:56:18.527Z,9.65
2024-01-20T11:58:45.798Z,9.50
2024-01-20T12:01:15.330Z,9.70
2024-01-20T12:03:42.845Z,9.13
2024-01-20T12:06:13.041Z,9.43
2024-01-20T12:08:43.467Z,9.25
2024-01-20T12:11:22.774Z,8.68
2024-01-20T12:13:50.293Z,8.98
2024-01-20T12:16:18.594Z,8.93
2024-01-20T12:18:46.072Z,9.07
2024-01-20T12:21:13.395Z,8.32
2024-01-20T12:23:41.715Z,8.57
2024-01-20T12:26:15.742Z,8.68
2024-01-20T12:28:47.886Z,8.10
2024-01-20T12:31:18.415Z,8.82
2024-01-20T12:33:47.994Z,9.38
2024-01-20T12:36:15.101Z,9.48
2024-01-20T12:38:42.110Z,8.02
2024-01-20T12:41:09.545Z,7.63
2024-01-20T12:43:36.791Z,7.72
2024-01-20T12:46:03.940Z,7.63
2024-01-20T12:48:31.280Z,7.72
2024-01-20T12:50:59.642Z,7.32
2024-01-20T12:53:27.614Z,9.65
2024-01-20T12:55:54.755Z,7.55
2024-01-20T12:58:21.848Z,6.82
2024-01-20T13:00:49.113Z,7.63
2024-01-20T13:03:16.734Z,7.88
2024-01-20T13:05:47.354Z,8.80
2024-01-20T13:08:15.516Z,7.57
2024-01-20T13:10:51.047Z,9.45
2024-01-20T13:13:22.505Z,8.55
2024-01-20T13:15:49.824Z,11.88
2024-01-20T13:18:17.294Z,11.88
2024-01-20T13:20:44.628Z,8.30
2024-01-20T13:23:11.686Z,8.00
2024-01-20T13:25:40.839Z,7.65
2024-01-20T13:28:08.220Z,10.52
2024-01-20T13:30:35.937Z,7.40
2024-01-20T13:33:03.396Z,10.60
2024-01-20T13:35:30.463Z,8.75
2024-01-20T13:37:57.671Z,8.00
2024-01-20T13:40:24.711Z,7.68
2024-01-20T13:42:51.798Z,7.30
2024-01-20T13:45:19.096Z,32.17
2024-01-20T13:47:46.266Z,8.55
2024-01-20T13:50:13.363Z,8.88
2024-01-20T13:52:41.287Z,8.55
2024-01-20T13:55:08.681Z,9.70
2024-01-20T13:57:35.739Z,12.70
2024-01-20T14:00:03.599Z,12.10
2024-01-20T14:02:30.569Z,10.15
2024-01-20T14:04:57.974Z,8.38
2024-01-20T14:07:24.971Z,11.32
2024-01-20T14:09:51.949Z,12.20
2024-01-20T14:12:18.969Z,14.68
2024-01-20T14:14:45.962Z,9.27
2024-01-20T14:17:13.226Z,8.00
2024-01-20T14:19:40.842Z,6.78
2024-01-20T14:22:08.106Z,7.40
2024-01-20T14:24:35.114Z,6.35
2024-01-20T14:27:02.135Z,7.63
2024-01-20T14:29:29.102Z,7.05
2024-01-20T14:31:56.167Z,8.30
2024-01-20T14:34:23.739Z,6.57
2024-01-20T14:36:53.988Z,5.88
2024-01-20T14:39:23.613Z,6.32
2024-01-20T14:41:51.099Z,6.30
2024-01-20T14:44:18.166Z,8.68
2024-01-20T14:46:45.224Z,5.40
2024-01-20T14:49:12.497Z,4.55
2024-01-20T14:51:43.152Z,4.88
2024-01-20T14:54:10.463Z,4.47
2024-01-20T14:56:40.965Z,4.80
2024-01-20T14:59:08.381Z,4.53
2024-01-20T15:01:36.870Z,5.72
2024-01-20T15:04:06.614Z,6.93
2024-01-20T15:06:34.373Z,26.05
2024-01-20T15:09:01.625Z,8.75
2024-01-20T15:11:28.807Z,10.05
2024-01-20T15:13:55.897Z,8.68
2024-01-20T15:16:22.956Z,16.02
2024-01-20T15:18:50.231Z,9.45
2024-01-20T15:21:17.445Z,8.63
2024-01-20T15:23:44.484Z,7.28
2024-01-20T15:26:16.518Z,8.25
2024-01-20T15:28:44.164Z,9.00
2024-01-20T15:31:11.249Z,9.13
2024-01-20T15:33:39.869Z,8.55
2024-01-20T15:36:07.638Z,11.52
2024-01-20T15:38:35.018Z,7.68
2024-01-20T15:41:02.349Z,9.63
2024-01-20T15:43:29.871Z,8.85
2024-01-20T15:45:57.244Z,6.00
2024-01-20T15:48:24.645Z,6.68
2024-01-20T15:50:51.843Z,8.05
2024-01-20T15:53:19.097Z,9.20
2024-01-20T15:55:46.153Z,9.63
2024-01-20T15:58:13.806Z,12.27
2024-01-20T16:00:40.908Z,8.95
2024-01-20T16:03:08.200Z,23.85
2024-01-20T16:05:35.322Z,19.83
2024-01-20T16:08:02.221Z,27.63
2024-01-20T16:10:29.186Z,18.63
2024-01-20T16:12:56.232Z,10.23
2024-01-20T16:15:23.219Z,6.90
2024-01-20T16:17:50.729Z,9.82
2024-01-20T16:20:18.099Z,16.88
2024-01-20T16:22:45.547Z,11.85
2024-01-20T16:25:13.145Z,16.73
2024-01-20T16:27:40.128Z,15.88
2024-01-20T16:30:08.926Z,15.50
2024-01-20T16:32:36.151Z,12.32
2024-01-20T16:35:04.741Z,17.83
2024-01-20T16:37:31.948Z,16.60
2024-01-20T16:40:01.407Z,16.70
2024-01-20T16:42:29.325Z,19.83
2024-01-20T16:44:56.854Z,12.15
2024-01-20T16:47:25.569Z,17.02
2024-01-20T16:49:52.882Z,18.20
2024-01-20T16:52:20.383Z,15.52
2024-01-20T16:54:47.476Z,14.90
2024-01-20T16:57:15.829Z,12.13
2024-01-20T16:59:43.777Z,27.40
2024-01-20T17:02:10.874Z,20.15
2024-01-20T17:04:38.012Z,28.85
2024-01-20T17:07:05.512Z,35.83
2024-01-20T17:09:32.460Z,32.05
2024-01-20T17:11:59.505Z,22.30
2024-01-20T17:14:26.492Z,26.33
2024-01-20T17:16:53.913Z,25.58
2024-01-20T17:19:27.528Z,18.65
2024-01-20T17:21:54.681Z,15.77
2024-01-20T17:24:21.650Z,25.80
2024-01-20T17:26:48.590Z,40.10
2024-01-20T17:29:15.686Z,14.85
2024-01-20T17:31:42.722Z,17.73
2024-01-20T17:34:10.716Z,13.98
2024-01-20T17:36:37.819Z,10.07
2024-01-20T17:39:05.311Z,17.20
2024-01-20T17:41:32.965Z,10.95
2024-01-20T17:44:00.321Z,15.85
2024-01-20T17:46:27.282Z,11.65
2024-01-20T17:48:54.230Z,6.28
2024-01-20T17:51:21.257Z,15.02
2024-01-20T17:53:48.206Z,26.00
2024-01-20T17:56:15.491Z,50.17
2024-01-20T17:58:42.577Z,21.00
2024-01-20T18:01:12.026Z,16.63
2024-01-20T18:03:40.591Z,13.75
2024-01-20T18:06:09.030Z,21.60
2024-01-20T18:08:36.334Z,17.13
2024-01-20T18:11:03.726Z,12.55
2024-01-20T18:13:30.977Z,8.90
2024-01-20T18:15:59.685Z,9.10
2024-01-20T18:18:26.938Z,12.23
2024-01-20T18:20:54.350Z,15.80
2024-01-20T18:23:22.861Z,25.13
2024-01-20T18:25:50.509Z,13.75
2024-01-20T18:28:19.010Z,13.30
2024-01-20T18:30:46.959Z,14.82
2024-01-20T18:33:14.455Z,14.57
2024-01-20T18:35:42.589Z,15.15
2024-01-20T18:38:09.857Z,15.02
2024-01-20T18:40:36.890Z,14.93
2024-01-20T18:43:04.191Z,10.60
2024-01-20T18:45:31.451Z,11.82
2024-01-20T18:47:58.695Z,15.82
2024-01-20T18:50:25.877Z,14.60
2024-01-20T18:52:53.476Z,16.92
2024-01-20T18:55:21.529Z,19.00
2024-01-20T18:57:48.598Z,17.80
2024-01-20T19:00:15.802Z,15.68
2024-01-20T19:02:43.351Z,17.88
2024-01-20T19:05:10.616Z,20.48
2024-01-20T19:07:37.801Z,22.35
2024-01-20T19:10:10.595Z,24.05
2024-01-20T19:12:38.533Z,21.60
2024-01-20T19:15:09.179Z,22.05
2024-01-20T19:17:36.775Z,20.25
2024-01-20T19:20:06.038Z,25.50
2024-01-20T19:22:33.188Z,27.08
2024-01-20T19:25:00.270Z,34.55
2024-01-20T19:27:27.539Z,39.88
2024-01-20T19:29:54.701Z,48.80
2024-01-20T19:32:21.872Z,39.63
2024-01-20T19:34:48.990Z,37.53
2024-01-20T19:37:17.265Z,24.55
2024-01-20T19:39:46.108Z,21.70
2024-01-20T19:42:14.327Z,19.45
2024-01-20T19:44:41.429Z,21.10
2024-01-20T19:47:08.993Z,14.55
2024-01-20T19:49:36.531Z,16.38
2024-01-20T19:52:03.997Z,22.67
2024-01-20T19:54:31.083Z,21.95
2024-01-20T19:56:58.379Z,30.35
2024-01-20T19:59:25.491Z,24.65
2024-01-20T20:01:52.622Z,22.73
2024-01-20T20:04:23.868Z,19.45
2024-01-20T20:06:52.548Z,20.75
2024-01-20T20:09:21.306Z,18.15
2024-01-20T20:11:48.894Z,18.67
2024-01-20T20:14:21.587Z,18.15
2024-01-20T20:16:50.526Z,17.48
2024-01-20T20:19:17.817Z,15.32
2024-01-20T20:21:50.897Z,14.80
2024-01-20T20:24:21.200Z,14.30
2024-01-20T20:26:48.721Z,15.57
2024-01-20T20:29:17.231Z,14.15
2024-01-20T20:31:45.015Z,14.32
2024-01-20T20:34:12.969Z,15.30
2024-01-20T20:36:40.912Z,13.55
2024-01-20T20:39:08.256Z,13.38
2024-01-20T20:41:35.390Z,12.65
2024-01-20T20:44:02.492Z,13.80
2024-01-20T20:46:29.557Z,15.68
2024-01-20T20:48:56.863Z,18.10
2024-01-20T20:51:25.244Z,15.07
2024-01-20T20:53:52.250Z,14.95
2024-01-20T20:56:19.397Z,16.38
2024-01-20T20:58:47.297Z,16.45
2024-01-20T21:01:15.003Z,21.40
2024-01-20T21:03:44.879Z,15.35
2024-01-20T21:06:12.504Z,16.58
2024-01-20T21:08:39.601Z,15.43
2024-01-20T21:11:10.233Z,16.30
2024-01-20T21:13:37.234Z,16.23
2024-01-20T21:16:05.103Z,16.27
2024-01-20T21:18:32.344Z,16.38
2024-01-20T21:20:59.386Z,19.92
2024-01-20T21:23:26.779Z,21.20
2024-01-20T21:25:55.269Z,25.17
2024-01-20T21:28:24.412Z,24.95
2024-01-20T21:30:53.867Z,24.45
2024-01-20T21:33:22.615Z,23.75
2024-01-20T21:35:50.034Z,19.88
2024-01-20T21:38:17.055Z,19.67
2024-01-20T21:40:46.029Z,19.33
2024-01-20T21:43:14.668Z,19.40
2024-01-20T21:45:43.844Z,18.88
2024-01-20T21:48:13.212Z,21.00
2024-01-20T21:50:40.500Z,19.35
2024-01-20T21:53:08.291Z,21.90
2024-01-20T21:55:35.407Z,22.10
2024-01-20T21:58:02.499Z,20.77
2024-01-20T22:00:29.725Z,20.85
2024-01-20T22:02:56.905Z,22.30
2024-01-20T22:05:27.854Z,23.80
2024-01-20T22:07:59.937Z,24.45
2024-01-20T22:10:30.711Z,24.58
2024-01-20T22:12:57.709Z,25.00
2024-01-20T22:15:26.146Z,24.17
2024-01-20T22:17:53.285Z,24.67
2024-01-20T22:20:20.401Z,23.83
2024-01-20T22:22:47.590Z,22.27
2024-01-20T22:25:16.579Z,21.08
2024-01-20T22:27:43.578Z,22.35
2024-01-20T22:30:11.405Z,22.83
2024-01-20T22:32:42.374Z,23.45
2024-01-20T22:35:09.628Z,21.75
2024-01-20T22:37:36.634Z,21.80
2024-01-20T22:40:05.099Z,21.30
2024-01-20T22:42:32.217Z,21.23
2024-01-20T22:44:59.211Z,22.58
2024-01-20T22:47:26.531Z,21.70
2024-01-20T22:49:53.533Z,20.58
2024-01-20T22:52:20.521Z,20.25
2024-01-20T22:54:47.742Z,20.20
2024-01-20T22:57:20.334Z,19.98
2024-01-20T22:59:48.106Z,19.83
2024-01-20T23:02:15.173Z,19.33
2024-01-20T23:04:42.201Z,19.35
2024-01-20T23:07:09.175Z,17.95
2024-01-20T23:09:36.223Z,16.02
2024-01-20T23:12:03.474Z,16.77
2024-01-20T23:14:34.531Z,14.70
2024-01-20T23:17:01.739Z,15.18
2024-01-20T23:19:29.173Z,15.15
2024-01-20T23:21:56.609Z,14.27
2024-01-20T23:24:23.610Z,14.75
2024-01-20T23:26:50.535Z,13.88
2024-01-20T23:29:18.472Z,12.45
2024-01-20T23:31:45.422Z,12.30
2024-01-20T23:34:12.760Z,13.80
2024-01-20T23:36:40.287Z,14.98
2024-01-20T23:39:08.935Z,15.88
2024-01-20T23:41:35.977Z,14.77
2024-01-20T23:44:02.928Z,14.77
2024-01-20T23:46:29.868Z,13.88
2024-01-20T23:48:59.510Z,12.77
2024-01-20T23:51:26.471Z,12.85
2024-01-20T23:53:53.367Z,12.48
2024-01-20T23:56:20.270Z,12.20
2024-01-20T23:58:47.400Z,12.23
